Time;durP1;ratioP1;P1;durP2;ratioP2;P2;SDS_P1;SDS_P2;PMS_P1;PMS_P2;Temp;Humidity;BMP_temperature;BMP_pressure;BME280_temperature;BME280_humidity;BME280_pressure;Samples;Min_cycle;Max_cycle;Signal;HPM_P1;HPM_P2
2023/12/21 00:00:58;;;;;;;7.93;5.53;;;;;;;;;;4976682;28;20041;-64
2023/12/21 00:03:23;;;;;;;10.13;6.40;;;;;;;;;;4976331;28;20863;-64
2023/12/21 00:05:48;;;;;;;11.38;6.22;;;;;;;;;;4980043;28;20754;-64
2023/12/21 00:08:13;;;;;;;7.85;6.18;;;;;;;;;;4975616;28;20036;-65
2023/12/21 00:10:39;;;;;;;9.02;5.63;;;;;;;;;;4980675;28;20025;-64
2023/12/21 00:13:04;;;;;;;11.82;6.15;;;;;;;;;;4974845;28;20285;-64
2023/12/21 00:15:29;;;;;;;11.45;6.05;;;;;;;;;;4980435;28;20030;-64
2023/12/21 00:17:54;;;;;;;7.47;5.00;;;;;;;;;;4975993;28;20033;-64
2023/12/21 00:20:20;;;;;;;9.15;6.10;;;;;;;;;;4982846;28;20034;-65
2023/12/21 00:22:45;;;;;;;12.10;6.35;;;;;;;;;;4978866;28;20017;-65
2023/12/21 00:25:11;;;;;;;10.15;6.07;;;;;;;;;;4982211;28;20029;-65
2023/12/21 00:27:36;;;;;;;9.93;6.03;;;;;;;;;;4978868;28;20840;-65
2023/12/21 00:30:01;;;;;;;8.13;5.82;;;;;;;;;;4980182;28;21389;-65
2023/12/21 00:32:26;;;;;;;8.47;4.90;;;;;;;;;;4974334;28;20115;-65
2023/12/21 00:34:52;;;;;;;7.55;5.30;;;;;;;;;;4981320;28;20295;-65
2023/12/21 00:37:17;;;;;;;8.85;5.10;;;;;;;;;;4975254;28;20057;-65
2023/12/21 00:39:42;;;;;;;8.23;4.55;;;;;;;;;;4984009;28;20139;-65
2023/12/21 00:42:07;;;;;;;7.63;5.15;;;;;;;;;;4973953;28;20939;-65
2023/12/21 00:44:33;;;;;;;9.38;4.68;;;;;;;;;;4977975;28;20033;-65
2023/12/21 00:46:59;;;;;;;10.07;5.25;;;;;;;;;;4975256;28;20059;-66
2023/12/21 00:49:24;;;;;;;8.40;4.93;;;;;;;;;;4986202;28;20036;-65
2023/12/21 00:51:49;;;;;;;9.60;4.78;;;;;;;;;;4987448;28;20033;-65
2023/12/21 00:54:14;;;;;;;8.68;5.05;;;;;;;;;;4975199;28;20029;-65
2023/12/21 00:56:40;;;;;;;8.25;4.75;;;;;;;;;;4981193;28;20096;-66
2023/12/21 00:59:05;;;;;;;9.15;5.15;;;;;;;;;;4977839;28;20937;-66
2023/12/21 01:01:30;;;;;;;10.77;5.07;;;;;;;;;;4976246;28;20212;-66
2023/12/21 01:03:55;;;;;;;7.83;4.47;;;;;;;;;;4975687;28;20279;-66
2023/12/21 01:06:20;;;;;;;10.90;5.00;;;;;;;;;;4975821;28;20338;-66
2023/12/21 01:08:46;;;;;;;8.60;4.90;;;;;;;;;;4976506;28;20092;-66
2023/12/21 01:11:11;;;;;;;5.78;4.38;;;;;;;;;;4975911;28;20309;-66
2023/12/21 01:13:37;;;;;;;9.98;4.97;;;;;;;;;;4974606;28;20104;-66
2023/12/21 01:16:02;;;;;;;12.90;5.40;;;;;;;;;;4975363;28;20029;-66
2023/12/21 01:18:27;;;;;;;6.57;4.53;;;;;;;;;;4974547;28;20032;-66
2023/12/21 01:20:52;;;;;;;6.82;4.88;;;;;;;;;;4974701;28;20080;-66
2023/12/21 01:23:18;;;;;;;8.57;4.72;;;;;;;;;;4982111;28;20033;-66
2023/12/21 01:25:43;;;;;;;8.57;4.78;;;;;;;;;;4974660;28;20033;-65
2023/12/21 01:28:08;;;;;;;7.73;4.43;;;;;;;;;;4975245;28;20026;-66
2023/12/21 01:30:33;;;;;;;10.48;4.72;;;;;;;;;;4977788;28;20288;-66
2023/12/21 01:32:59;;;;;;;7.87;5.07;;;;;;;;;;4975665;28;20034;-66
2023/12/21 01:35:24;;;;;;;10.67;4.80;;;;;;;;;;4988239;28;21265;-66
2023/12/21 01:37:49;;;;;;;8.88;4.38;;;;;;;;;;4977244;28;21179;-66
2023/12/21 01:40:15;;;;;;;7.57;4.67;;;;;;;;;;4991721;28;20080;-66
2023/12/21 01:42:40;;;;;;;7.80;5.10;;;;;;;;;;4980881;28;20304;-66
2023/12/21 01:45:05;;;;;;;11.85;4.70;;;;;;;;;;4973793;28;20793;-66
2023/12/21 01:47:31;;;;;;;8.13;4.88;;;;;;;;;;4973786;28;20080;-66
2023/12/21 01:49:56;;;;;;;10.13;5.05;;;;;;;;;;4976067;28;20243;-66
2023/12/21 01:52:21;;;;;;;7.83;4.60;;;;;;;;;;4975506;28;20034;-66
2023/12/21 01:54:47;;;;;;;16.20;5.35;;;;;;;;;;4979571;28;20264;-66
2023/12/21 01:57:12;;;;;;;13.17;5.00;;;;;;;;;;4985524;28;20124;-66
2023/12/21 01:59:38;;;;;;;9.40;4.47;;;;;;;;;;4983653;28;20271;-66
2023/12/21 02:02:03;;;;;;;8.95;4.82;;;;;;;;;;4975896;28;20068;-66
2023/12/21 02:04:29;;;;;;;9.57;6.05;;;;;;;;;;4976064;28;20033;-66
2023/12/21 02:06:54;;;;;;;11.57;4.90;;;;;;;;;;4983113;28;20025;-66
2023/12/21 02:09:19;;;;;;;12.32;5.05;;;;;;;;;;4978163;28;20032;-66
2023/12/21 02:11:46;;;;;;;11.47;5.73;;;;;;;;;;4973843;28;20030;-66
2023/12/21 02:14:11;;;;;;;9.10;4.97;;;;;;;;;;4977588;28;21234;-66
2023/12/21 02:16:39;;;;;;;12.20;5.83;;;;;;;;;;4977138;28;20036;-66
2023/12/21 02:19:05;;;;;;;11.43;5.22;;;;;;;;;;4993875;28;20286;-66
2023/12/21 02:21:30;;;;;;;12.82;5.15;;;;;;;;;;4977972;28;20037;-66
2023/12/21 02:23:57;;;;;;;13.32;5.03;;;;;;;;;;4978738;28;20551;-66
2023/12/21 02:26:22;;;;;;;11.80;4.95;;;;;;;;;;4979030;28;20091;-66
2023/12/21 02:28:47;;;;;;;9.10;4.60;;;;;;;;;;4979623;28;21517;-66
2023/12/21 02:31:12;;;;;;;8.18;4.15;;;;;;;;;;4982095;28;21263;-66
2023/12/21 02:33:38;;;;;;;9.73;4.30;;;;;;;;;;4980588;28;20770;-66
2023/12/21 02:36:03;;;;;;;15.97;5.20;;;;;;;;;;4977700;28;21310;-66
2023/12/21 02:38:28;;;;;;;8.82;4.80;;;;;;;;;;4959256;28;21189;-66
2023/12/21 02:40:53;;;;;;;9.25;4.20;;;;;;;;;;4977807;28;20869;-66
2023/12/21 02:43:19;;;;;;;9.32;4.28;;;;;;;;;;4977154;28;20157;-66
2023/12/21 02:45:44;;;;;;;13.23;5.13;;;;;;;;;;4979218;28;20034;-66
2023/12/21 02:48:10;;;;;;;10.83;5.03;;;;;;;;;;4976931;28;21196;-66
2023/12/21 02:50:35;;;;;;;8.82;4.40;;;;;;;;;;4978021;28;21067;-66
2023/12/21 02:53:00;;;;;;;10.27;5.22;;;;;;;;;;4979087;28;20125;-66
2023/12/21 02:55:26;;;;;;;7.25;4.55;;;;;;;;;;4980198;28;20869;-66
2023/12/21 02:57:51;;;;;;;11.13;4.93;;;;;;;;;;4979285;28;20033;-67
2023/12/21 03:00:16;;;;;;;11.07;5.33;;;;;;;;;;4978126;28;20276;-66
2023/12/21 03:02:41;;;;;;;8.75;5.10;;;;;;;;;;4978347;28;20289;-66
2023/12/21 03:05:07;;;;;;;11.55;5.05;;;;;;;;;;4987101;28;20033;-67
2023/12/21 03:07:32;;;;;;;9.38;4.93;;;;;;;;;;4978068;28;20053;-66
2023/12/21 03:09:57;;;;;;;7.00;4.50;;;;;;;;;;4978212;28;20025;-66
2023/12/21 03:12:22;;;;;;;12.13;4.60;;;;;;;;;;4985145;28;20280;-66
2023/12/21 03:14:48;;;;;;;10.15;4.95;;;;;;;;;;4986901;28;20091;-66
2023/12/21 03:17:13;;;;;;;11.27;5.03;;;;;;;;;;4981605;28;20916;-66
2023/12/21 03:19:39;;;;;;;9.73;4.13;;;;;;;;;;4980595;28;20654;-66
2023/12/21 03:22:04;;;;;;;7.78;4.35;;;;;;;;;;4986399;28;20038;-66
2023/12/21 03:24:29;;;;;;;9.80;5.03;;;;;;;;;;4977846;28;20480;-67
2023/12/21 03:26:54;;;;;;;8.05;5.00;;;;;;;;;;4976162;28;20026;-66
2023/12/21 03:29:20;;;;;;;16.40;4.97;;;;;;;;;;4977186;28;20037;-66
2023/12/21 03:31:45;;;;;;;8.07;4.22;;;;;;;;;;4984514;28;20030;-66
2023/12/21 03:34:10;;;;;;;11.00;4.72;;;;;;;;;;4982574;28;20028;-67
2023/12/21 03:36:35;;;;;;;9.37;4.67;;;;;;;;;;4981715;28;20022;-66
2023/12/21 03:39:00;;;;;;;7.90;4.27;;;;;;;;;;4985481;28;20897;-66
2023/12/21 03:41:26;;;;;;;12.40;4.50;;;;;;;;;;4991328;28;21319;-66
2023/12/21 03:43:51;;;;;;;12.90;4.38;;;;;;;;;;4991219;28;21160;-66
2023/12/21 03:46:16;;;;;;;10.68;4.40;;;;;;;;;;4977995;28;20801;-67
2023/12/21 03:48:41;;;;;;;11.98;4.65;;;;;;;;;;4983005;28;20048;-67
2023/12/21 03:51:07;;;;;;;8.80;4.40;;;;;;;;;;4982935;28;20499;-67
2023/12/21 03:53:32;;;;;;;11.57;5.05;;;;;;;;;;4976786;28;21325;-67
2023/12/21 03:55:57;;;;;;;9.05;3.97;;;;;;;;;;4961692;28;20029;-67
2023/12/21 03:58:22;;;;;;;7.13;3.60;;;;;;;;;;4977456;28;20891;-67
2023/12/21 04:00:48;;;;;;;8.13;4.10;;;;;;;;;;4976874;28;21231;-67
2023/12/21 04:03:13;;;;;;;11.77;4.10;;;;;;;;;;4986798;28;21225;-67
2023/12/21 04:05:38;;;;;;;7.38;4.07;;;;;;;;;;4982885;28;20791;-67
2023/12/21 04:08:04;;;;;;;9.13;4.13;;;;;;;;;;4982044;28;20030;-67
2023/12/21 04:10:29;;;;;;;6.65;4.05;;;;;;;;;;4976612;28;20928;-67
2023/12/21 04:12:55;;;;;;;10.63;4.10;;;;;;;;;;4980401;28;20018;-67
2023/12/21 04:15:20;;;;;;;10.73;4.37;;;;;;;;;;4977097;28;20894;-68
2023/12/21 04:17:45;;;;;;;10.57;4.72;;;;;;;;;;4978377;28;21273;-67
2023/12/21 04:20:10;;;;;;;16.88;5.75;;;;;;;;;;4981870;28;20336;-67
2023/12/21 04:22:36;;;;;;;11.60;5.00;;;;;;;;;;4984062;28;20030;-67
2023/12/21 04:25:01;;;;;;;9.90;4.87;;;;;;;;;;4979574;28;20188;-67
2023/12/21 04:27:28;;;;;;;13.63;5.75;;;;;;;;;;4978972;28;20277;-67
2023/12/21 04:29:53;;;;;;;9.25;4.63;;;;;;;;;;4977787;28;20933;-67
2023/12/21 04:32:19;;;;;;;13.40;5.63;;;;;;;;;;4980939;28;20034;-67
2023/12/21 04:34:44;;;;;;;14.00;5.78;;;;;;;;;;4976225;28;20399;-67
2023/12/21 04:37:10;;;;;;;15.23;5.55;;;;;;;;;;4979569;28;21041;-67
2023/12/21 04:39:35;;;;;;;12.83;5.50;;;;;;;;;;4977571;28;20129;-67
2023/12/21 04:42:00;;;;;;;17.17;5.85;;;;;;;;;;4978762;28;20289;-67
2023/12/21 04:44:25;;;;;;;16.77;5.83;;;;;;;;;;4982549;28;20077;-67
2023/12/21 04:46:51;;;;;;;13.73;5.43;;;;;;;;;;4976860;28;20379;-67
2023/12/21 04:49:17;;;;;;;12.35;5.88;;;;;;;;;;4976630;28;20917;-68
2023/12/21 04:51:43;;;;;;;15.20;5.95;;;;;;;;;;4981234;28;20053;-67
2023/12/21 04:54:08;;;;;;;22.02;6.03;;;;;;;;;;4976968;28;20900;-68
2023/12/21 04:56:33;;;;;;;14.45;5.22;;;;;;;;;;4975354;28;20076;-67
2023/12/21 04:58:58;;;;;;;13.77;5.70;;;;;;;;;;4976023;28;20061;-68
2023/12/21 05:01:24;;;;;;;11.73;4.88;;;;;;;;;;4981003;28;20395;-68
2023/12/21 05:03:50;;;;;;;14.27;5.23;;;;;;;;;;4988846;28;20442;-68
2023/12/21 05:06:15;;;;;;;18.73;6.05;;;;;;;;;;4984740;28;20289;-67
2023/12/21 05:08:40;;;;;;;10.70;4.83;;;;;;;;;;4977399;28;20522;-68
2023/12/21 05:11:05;;;;;;;14.05;4.57;;;;;;;;;;4986072;28;20496;-67
2023/12/21 05:13:31;;;;;;;13.40;5.20;;;;;;;;;;4985587;28;20032;-67
2023/12/21 05:15:56;;;;;;;15.90;5.20;;;;;;;;;;4980812;28;20172;-66
2023/12/21 05:18:21;;;;;;;12.02;5.28;;;;;;;;;;4974885;28;20037;-67
2023/12/21 05:20:46;;;;;;;16.07;5.17;;;;;;;;;;4974802;28;20808;-67
2023/12/21 05:23:12;;;;;;;16.03;4.97;;;;;;;;;;4973943;28;21242;-67
2023/12/21 05:25:37;;;;;;;14.37;5.30;;;;;;;;;;4973847;28;20850;-68
2023/12/21 05:28:02;;;;;;;14.63;4.83;;;;;;;;;;4976305;28;21226;-68
2023/12/21 05:30:27;;;;;;;8.90;4.47;;;;;;;;;;4974908;28;21184;-68
2023/12/21 05:32:52;;;;;;;13.73;5.23;;;;;;;;;;4986710;28;20133;-68
2023/12/21 05:35:18;;;;;;;8.93;4.37;;;;;;;;;;4987463;28;20285;-67
2023/12/21 05:37:43;;;;;;;10.52;4.80;;;;;;;;;;4977202;28;20285;-67
2023/12/21 05:40:09;;;;;;;15.30;4.73;;;;;;;;;;4979978;28;20022;-67
2023/12/21 05:42:34;;;;;;;9.20;4.35;;;;;;;;;;4992904;28;20864;-67
2023/12/21 05:44:59;;;;;;;9.13;4.10;;;;;;;;;;4991196;28;20966;-67
2023/12/21 05:47:24;;;;;;;9.97;4.53;;;;;;;;;;4984888;28;21212;-66
2023/12/21 05:49:50;;;;;;;13.30;5.05;;;;;;;;;;4987270;28;21174;-66
2023/12/21 05:52:15;;;;;;;16.95;6.30;;;;;;;;;;4983578;28;20142;-66
2023/12/21 05:54:41;;;;;;;16.08;6.35;;;;;;;;;;4981621;28;20030;-67
2023/12/21 05:57:06;;;;;;;13.98;5.28;;;;;;;;;;4975501;28;20030;-67
2023/12/21 05:59:31;;;;;;;16.63;5.57;;;;;;;;;;4975080;28;20040;-67
2023/12/21 06:01:56;;;;;;;18.40;5.80;;;;;;;;;;4975391;28;20293;-67
2023/12/21 06:04:22;;;;;;;14.17;6.33;;;;;;;;;;4979928;28;20834;-67
2023/12/21 06:06:47;;;;;;;11.77;4.90;;;;;;;;;;4980285;28;21187;-67
2023/12/21 06:09:13;;;;;;;11.43;4.85;;;;;;;;;;4975033;28;20033;-67
2023/12/21 06:11:38;;;;;;;13.20;5.40;;;;;;;;;;4977805;28;20064;-67
2023/12/21 06:14:03;;;;;;;14.65;5.35;;;;;;;;;;4988289;28;20864;-67
2023/12/21 06:16:29;;;;;;;11.88;5.03;;;;;;;;;;4983169;28;20121;-67
2023/12/21 06:18:54;;;;;;;10.80;5.00;;;;;;;;;;4963647;28;20148;-67
2023/12/21 06:21:19;;;;;;;19.15;5.65;;;;;;;;;;4988761;28;20029;-67
2023/12/21 06:23:45;;;;;;;16.58;5.10;;;;;;;;;;4978049;28;20021;-67
2023/12/21 06:26:10;;;;;;;13.45;4.82;;;;;;;;;;4974583;28;20034;-67
2023/12/21 06:28:35;;;;;;;16.42;5.28;;;;;;;;;;4975700;28;20036;-67
2023/12/21 06:31:00;;;;;;;15.98;5.53;;;;;;;;;;4980773;28;20414;-66
2023/12/21 06:33:26;;;;;;;14.73;5.27;;;;;;;;;;4985696;28;20034;-67
2023/12/21 06:35:52;;;;;;;12.27;4.53;;;;;;;;;;4977530;28;20264;-67
2023/12/21 06:38:17;;;;;;;10.43;4.72;;;;;;;;;;4975646;28;20032;-68
2023/12/21 06:40:42;;;;;;;17.95;4.72;;;;;;;;;;4973007;28;20026;-67
2023/12/21 06:43:07;;;;;;;12.67;4.67;;;;;;;;;;4977884;28;20317;-67
2023/12/21 06:45:33;;;;;;;8.03;4.20;;;;;;;;;;4984967;28;21724;-67
2023/12/21 06:47:59;;;;;;;13.80;4.87;;;;;;;;;;4975652;28;21260;-66
2023/12/21 06:50:24;;;;;;;12.77;4.50;;;;;;;;;;4987896;28;20287;-67
2023/12/21 06:52:49;;;;;;;13.13;4.13;;;;;;;;;;4985591;28;20918;-67
2023/12/21 06:55:15;;;;;;;10.45;3.85;;;;;;;;;;4973965;28;20378;-67
2023/12/21 06:57:40;;;;;;;8.85;3.80;;;;;;;;;;4983047;28;20050;-66
2023/12/21 07:00:06;;;;;;;15.65;4.55;;;;;;;;;;4981178;28;21370;-66
2023/12/21 07:02:31;;;;;;;11.63;4.03;;;;;;;;;;4984242;28;20127;-66
2023/12/21 07:04:57;;;;;;;8.38;4.07;;;;;;;;;;4983167;28;20754;-67
2023/12/21 07:07:23;;;;;;;12.05;4.15;;;;;;;;;;4988636;28;20041;-67
2023/12/21 07:09:48;;;;;;;10.90;3.13;;;;;;;;;;4988164;28;20148;-67
2023/12/21 07:12:14;;;;;;;7.87;3.87;;;;;;;;;;4989151;28;20903;-67
2023/12/21 07:14:39;;;;;;;14.63;3.28;;;;;;;;;;4977068;28;21237;-67
2023/12/21 07:17:05;;;;;;;11.68;3.70;;;;;;;;;;4986454;28;20018;-66
2023/12/21 07:19:30;;;;;;;9.15;3.28;;;;;;;;;;4980684;28;20033;-67
2023/12/21 07:21:55;;;;;;;7.37;3.23;;;;;;;;;;4986209;28;20030;-67
2023/12/21 07:24:20;;;;;;;7.53;3.00;;;;;;;;;;4977636;28;20301;-67
2023/12/21 07:26:46;;;;;;;14.57;3.60;;;;;;;;;;4978504;28;20359;-66
2023/12/21 07:29:11;;;;;;;15.13;3.35;;;;;;;;;;4982355;28;20279;-67
2023/12/21 07:31:37;;;;;;;11.13;3.53;;;;;;;;;;4985121;28;20060;-66
2023/12/21 07:34:02;;;;;;;10.80;3.10;;;;;;;;;;4992122;28;20772;-67
2023/12/21 07:36:27;;;;;;;11.23;3.35;;;;;;;;;;4976121;28;20105;-67
2023/12/21 07:38:52;;;;;;;15.35;3.10;;;;;;;;;;4985651;28;20143;-67
2023/12/21 07:41:18;;;;;;;8.00;2.53;;;;;;;;;;4985838;28;20030;-67
2023/12/21 07:43:44;;;;;;;7.73;3.03;;;;;;;;;;4996779;28;20922;-67
2023/12/21 07:46:10;;;;;;;7.35;2.53;;;;;;;;;;4985565;28;20293;-67
2023/12/21 07:48:35;;;;;;;8.75;3.50;;;;;;;;;;4987443;28;20092;-67
2023/12/21 07:51:00;;;;;;;8.48;3.15;;;;;;;;;;4990326;28;20049;-67
2023/12/21 07:53:26;;;;;;;9.43;2.93;;;;;;;;;;4991266;28;20147;-67
2023/12/21 07:55:51;;;;;;;10.68;2.67;;;;;;;;;;4991916;28;20306;-67
2023/12/21 07:58:16;;;;;;;11.05;3.22;;;;;;;;;;4990261;28;20930;-67
2023/12/21 08:00:41;;;;;;;7.95;3.25;;;;;;;;;;4999933;28;20099;-66
2023/12/21 08:03:07;;;;;;;11.40;2.95;;;;;;;;;;4998597;28;20037;-67
2023/12/21 08:05:33;;;;;;;11.50;2.95;;;;;;;;;;4988698;28;20050;-67
2023/12/21 08:07:58;;;;;;;8.63;2.73;;;;;;;;;;4990795;28;20776;-66
2023/12/21 08:10:24;;;;;;;8.02;2.63;;;;;;;;;;4990819;28;20323;-67
2023/12/21 08:12:49;;;;;;;7.53;2.80;;;;;;;;;;4990573;28;20037;-66
2023/12/21 08:15:15;;;;;;;9.60;2.83;;;;;;;;;;4992258;28;20584;-66
2023/12/21 08:17:40;;;;;;;5.75;2.70;;;;;;;;;;4993773;28;20033;-67
2023/12/21 08:20:06;;;;;;;7.40;2.25;;;;;;;;;;4991975;28;20025;-67
2023/12/21 08:22:31;;;;;;;8.43;2.33;;;;;;;;;;4989026;28;20480;-67
2023/12/21 08:24:58;;;;;;;8.80;2.55;;;;;;;;;;4995593;28;20044;-67
2023/12/21 08:27:23;;;;;;;6.15;2.53;;;;;;;;;;4991866;28;20543;-68
2023/12/21 08:29:49;;;;;;;7.45;2.95;;;;;;;;;;5000911;28;20041;-67
2023/12/21 08:32:14;;;;;;;10.40;3.25;;;;;;;;;;4988333;28;20805;-67
2023/12/21 08:34:39;;;;;;;6.07;3.15;;;;;;;;;;4996504;28;20076;-66
2023/12/21 08:37:05;;;;;;;7.15;2.67;;;;;;;;;;4985818;28;20033;-67
2023/12/21 08:39:30;;;;;;;9.50;2.95;;;;;;;;;;4985495;28;21070;-67
2023/12/21 08:41:56;;;;;;;6.87;2.40;;;;;;;;;;4983422;28;20825;-68
2023/12/21 08:44:21;;;;;;;4.28;2.22;;;;;;;;;;4980754;28;21032;-67
2023/12/21 08:46:46;;;;;;;5.97;2.63;;;;;;;;;;4980352;28;20088;-68
2023/12/21 08:49:12;;;;;;;6.17;2.40;;;;;;;;;;4981674;28;20276;-68
2023/12/21 08:51:38;;;;;;;6.97;2.70;;;;;;;;;;4979417;28;20265;-68
2023/12/21 08:54:04;;;;;;;4.65;2.55;;;;;;;;;;4974661;28;20148;-68
2023/12/21 08:56:30;;;;;;;4.97;2.47;;;;;;;;;;4977050;28;20061;-68
2023/12/21 08:58:56;;;;;;;6.80;2.45;;;;;;;;;;4973300;28;20028;-67
2023/12/21 09:01:22;;;;;;;7.30;2.70;;;;;;;;;;4981208;28;20025;-68
2023/12/21 09:03:47;;;;;;;7.90;2.92;;;;;;;;;;4983823;28;20034;-68
2023/12/21 09:06:12;;;;;;;7.60;3.05;;;;;;;;;;4981340;28;20869;-67
2023/12/21 09:08:37;;;;;;;9.07;2.95;;;;;;;;;;4973989;28;20036;-66
2023/12/21 09:11:03;;;;;;;7.63;3.65;;;;;;;;;;4986265;28;20889;-67
2023/12/21 09:13:28;;;;;;;9.07;3.33;;;;;;;;;;4985301;28;20200;-67
2023/12/21 09:15:53;;;;;;;8.80;3.97;;;;;;;;;;4983604;28;20896;-66
2023/12/21 09:18:18;;;;;;;9.30;3.95;;;;;;;;;;4977995;28;21155;-66
2023/12/21 09:20:44;;;;;;;14.35;3.15;;;;;;;;;;4982819;28;20129;-66
2023/12/21 09:23:09;;;;;;;7.53;2.75;;;;;;;;;;4983480;28;20083;-66
2023/12/21 09:25:34;;;;;;;6.20;2.83;;;;;;;;;;4972644;28;20037;-67
2023/12/21 09:28:02;;;;;;;8.27;2.60;;;;;;;;;;4994333;28;20034;-66
2023/12/21 09:30:28;;;;;;;7.90;2.55;;;;;;;;;;4987367;28;20275;-66
2023/12/21 09:32:53;;;;;;;4.07;2.30;;;;;;;;;;4982009;28;20095;-66
2023/12/21 09:35:20;;;;;;;7.37;2.87;;;;;;;;;;4973282;28;20030;-68
2023/12/21 09:37:45;;;;;;;6.97;2.60;;;;;;;;;;4976098;28;20276;-66
2023/12/21 09:40:12;;;;;;;6.38;2.95;;;;;;;;;;4985026;28;20466;-66
2023/12/21 09:42:42;;;;;;;8.40;3.13;;;;;;;;;;4985524;28;20152;-66
2023/12/21 09:45:08;;;;;;;6.20;2.63;;;;;;;;;;4983682;28;20034;-66
2023/12/21 09:47:33;;;;;;;5.13;3.00;;;;;;;;;;4974893;28;20975;-66
2023/12/21 09:50:01;;;;;;;5.45;2.83;;;;;;;;;;4987877;28;20024;-66
2023/12/21 09:52:26;;;;;;;10.93;2.95;;;;;;;;;;4985214;28;20121;-69
2023/12/21 09:54:52;;;;;;;6.47;3.10;;;;;;;;;;4981609;28;20040;-66
2023/12/21 09:57:18;;;;;;;6.25;2.20;;;;;;;;;;4991564;28;20734;-66
2023/12/21 09:59:43;;;;;;;9.15;3.72;;;;;;;;;;4990658;28;20029;-66
2023/12/21 10:02:12;;;;;;;5.50;2.95;;;;;;;;;;4978071;28;20129;-66
2023/12/21 10:04:44;;;;;;;7.75;2.80;;;;;;;;;;4980922;28;20928;-66
2023/12/21 10:07:12;;;;;;;5.22;2.70;;;;;;;;;;4979490;28;20034;-66
2023/12/21 10:09:38;;;;;;;5.85;2.90;;;;;;;;;;4983404;28;20282;-66
2023/12/21 10:12:03;;;;;;;6.32;2.53;;;;;;;;;;4985506;28;20030;-66
2023/12/21 10:14:31;;;;;;;7.47;2.85;;;;;;;;;;4986056;28;20069;-66
2023/12/21 10:16:56;;;;;;;8.27;2.67;;;;;;;;;;4993559;28;20030;-66
2023/12/21 10:19:21;;;;;;;10.93;2.30;;;;;;;;;;4991813;28;20190;-66
2023/12/21 10:21:47;;;;;;;7.65;2.83;;;;;;;;;;4980453;28;20021;-67
2023/12/21 10:24:12;;;;;;;8.20;2.72;;;;;;;;;;4987863;28;20137;-67
2023/12/21 10:26:44;;;;;;;10.23;1.83;;;;;;;;;;4994646;28;20883;-66
2023/12/21 10:29:12;;;;;;;4.05;2.30;;;;;;;;;;4982810;28;20096;-66
2023/12/21 10:31:41;;;;;;;4.95;1.80;;;;;;;;;;4979863;28;20898;-66
2023/12/21 10:34:09;;;;;;;3.30;1.98;;;;;;;;;;4982431;28;20149;-66
2023/12/21 10:36:37;;;;;;;6.32;1.88;;;;;;;;;;4992821;28;20131;-67
2023/12/21 10:39:02;;;;;;;3.65;1.77;;;;;;;;;;4990212;28;20494;-67
2023/12/21 10:41:29;;;;;;;4.53;1.90;;;;;;;;;;4984037;28;20022;-67
2023/12/21 10:43:54;;;;;;;4.55;1.55;;;;;;;;;;4978763;28;20072;-67
2023/12/21 10:46:20;;;;;;;5.10;2.20;;;;;;;;;;4977649;28;20849;-66
2023/12/21 10:48:45;;;;;;;3.55;1.73;;;;;;;;;;4984433;28;20072;-66
2023/12/21 10:51:11;;;;;;;9.35;1.80;;;;;;;;;;4980447;28;20777;-66
2023/12/21 10:53:37;;;;;;;3.97;1.77;;;;;;;;;;4989414;28;20052;-66
2023/12/21 10:56:02;;;;;;;4.07;1.38;;;;;;;;;;4988975;28;20087;-66
2023/12/21 10:58:29;;;;;;;3.03;1.65;;;;;;;;;;4980176;28;20099;-66
2023/12/21 11:00:54;;;;;;;4.32;1.27;;;;;;;;;;4988687;28;20041;-66
2023/12/21 11:03:20;;;;;;;3.22;1.48;;;;;;;;;;4987866;28;20079;-66
2023/12/21 11:05:45;;;;;;;2.90;1.33;;;;;;;;;;4975720;28;20231;-66
2023/12/21 11:08:11;;;;;;;5.32;1.80;;;;;;;;;;4977098;28;20821;-65
2023/12/21 11:10:37;;;;;;;5.35;1.35;;;;;;;;;;4977870;28;20033;-65
2023/12/21 11:13:02;;;;;;;3.42;1.10;;;;;;;;;;4984911;28;20859;-66
2023/12/21 11:15:28;;;;;;;2.10;1.00;;;;;;;;;;4976732;28;20032;-66
2023/12/21 11:17:56;;;;;;;3.45;1.00;;;;;;;;;;4977733;28;20179;-66
2023/12/21 11:20:23;;;;;;;5.30;1.10;;;;;;;;;;4979952;28;20064;-67
2023/12/21 11:22:48;;;;;;;2.50;1.30;;;;;;;;;;4980680;28;20029;-66
2023/12/21 11:25:13;;;;;;;4.18;1.30;;;;;;;;;;4979279;28;20828;-66
2023/12/21 11:27:41;;;;;;;2.90;1.30;;;;;;;;;;4978420;28;20036;-67
2023/12/21 11:30:10;;;;;;;3.05;1.20;;;;;;;;;;4983666;28;20021;-66
2023/12/21 11:32:36;;;;;;;4.57;1.30;;;;;;;;;;4989302;28;20027;-66
2023/12/21 11:35:01;;;;;;;3.28;1.25;;;;;;;;;;4985331;28;20022;-66
2023/12/21 11:37:27;;;;;;;4.60;1.77;;;;;;;;;;4966597;28;20033;-66
2023/12/21 11:39:53;;;;;;;4.35;1.42;;;;;;;;;;4983169;28;20367;-66
2023/12/21 11:42:19;;;;;;;3.33;1.40;;;;;;;;;;4981220;28;20014;-66
2023/12/21 11:44:48;;;;;;;2.92;1.30;;;;;;;;;;4978056;28;20152;-66
2023/12/21 11:47:15;;;;;;;4.13;1.40;;;;;;;;;;4986353;28;20018;-65
2023/12/21 11:49:40;;;;;;;3.60;1.58;;;;;;;;;;4974540;28;20883;-65
2023/12/21 11:52:05;;;;;;;3.08;1.65;;;;;;;;;;4981432;28;20029;-65
2023/12/21 11:54:31;;;;;;;3.65;1.55;;;;;;;;;;4988202;28;20932;-64
2023/12/21 11:57:08;;;;;;;4.25;1.45;;;;;;;;;;4976204;28;20030;-65
2023/12/21 11:59:34;;;;;;;2.90;1.30;;;;;;;;;;4976470;28;20034;-65
2023/12/21 12:01:59;;;;;;;2.65;1.08;;;;;;;;;;4977244;28;20061;-66
2023/12/21 12:04:24;;;;;;;3.40;1.00;;;;;;;;;;4980266;28;20088;-66
2023/12/21 12:06:50;;;;;;;2.22;0.90;;;;;;;;;;4984266;28;20272;-65
2023/12/21 12:09:16;;;;;;;1.60;0.80;;;;;;;;;;4979945;28;20785;-65
2023/12/21 12:11:41;;;;;;;2.78;0.88;;;;;;;;;;4979032;28;20064;-65
2023/12/21 12:14:08;;;;;;;3.40;1.03;;;;;;;;;;4977695;28;21015;-66
2023/12/21 12:16:34;;;;;;;3.30;1.13;;;;;;;;;;4985443;28;20284;-65
2023/12/21 12:18:59;;;;;;;5.10;1.10;;;;;;;;;;4980682;28;20025;-65
2023/12/21 12:21:25;;;;;;;2.28;0.82;;;;;;;;;;4987917;28;20048;-66
2023/12/21 12:23:50;;;;;;;3.50;1.15;;;;;;;;;;4981837;28;20025;-65
2023/12/21 12:26:16;;;;;;;4.93;0.80;;;;;;;;;;4983299;28;20058;-66
2023/12/21 12:28:41;;;;;;;3.88;1.20;;;;;;;;;;4978815;28;20087;-65
2023/12/21 12:31:07;;;;;;;3.05;0.95;;;;;;;;;;4989345;28;20855;-66
2023/12/21 12:33:33;;;;;;;1.80;0.63;;;;;;;;;;4976820;28;20026;-65
2023/12/21 12:36:02;;;;;;;1.75;0.82;;;;;;;;;;4978164;28;20013;-65
2023/12/21 12:38:28;;;;;;;2.80;0.90;;;;;;;;;;4982182;28;20025;-66
2023/12/21 12:40:53;;;;;;;1.92;0.85;;;;;;;;;;4980373;28;20513;-66
2023/12/21 12:43:18;;;;;;;1.67;0.73;;;;;;;;;;4985371;28;20029;-65
2023/12/21 12:45:44;;;;;;;2.10;0.57;;;;;;;;;;4976167;28;20065;-67
2023/12/21 12:48:14;;;;;;;4.25;0.80;;;;;;;;;;4976779;28;20049;-65
2023/12/21 12:50:40;;;;;;;2.25;0.57;;;;;;;;;;4978731;28;20041;-66
2023/12/21 12:53:08;;;;;;;2.33;0.88;;;;;;;;;;4977810;28;20911;-67
2023/12/21 12:55:33;;;;;;;4.80;0.80;;;;;;;;;;4974554;28;20265;-67
2023/12/21 12:57:58;;;;;;;3.07;1.13;;;;;;;;;;4978732;28;20831;-66
2023/12/21 13:00:23;;;;;;;2.05;0.73;;;;;;;;;;4984202;28;21361;-65
2023/12/21 13:02:49;;;;;;;1.87;0.70;;;;;;;;;;4972186;28;20026;-67
2023/12/21 13:05:17;;;;;;;2.25;0.80;;;;;;;;;;4976269;28;20296;-66
2023/12/21 13:07:42;;;;;;;2.08;0.93;;;;;;;;;;4978246;28;20049;-66
2023/12/21 13:10:10;;;;;;;2.70;0.55;;;;;;;;;;4975137;28;20120;-67
2023/12/21 13:12:35;;;;;;;3.38;0.98;;;;;;;;;;4977371;28;20088;-67
2023/12/21 13:15:00;;;;;;;1.33;0.52;;;;;;;;;;4987006;28;20034;-67
2023/12/21 13:17:25;;;;;;;1.90;0.57;;;;;;;;;;4977151;28;20040;-67
2023/12/21 13:19:51;;;;;;;1.25;0.50;;;;;;;;;;4983806;28;20395;-66
2023/12/21 13:22:16;;;;;;;3.38;0.80;;;;;;;;;;4983538;28;20745;-67
2023/12/21 13:24:41;;;;;;;2.33;0.80;;;;;;;;;;4991686;28;21182;-66
2023/12/21 13:27:07;;;;;;;2.25;0.77;;;;;;;;;;4978872;28;21102;-67
2023/12/21 13:29:32;;;;;;;3.03;1.17;;;;;;;;;;4980954;28;20064;-66
2023/12/21 13:31:57;;;;;;;4.40;0.93;;;;;;;;;;4983607;28;20022;-66
2023/12/21 13:34:24;;;;;;;2.25;0.70;;;;;;;;;;4980268;28;20030;-66
2023/12/21 13:36:49;;;;;;;2.22;0.80;;;;;;;;;;4981637;28;20071;-66
2023/12/21 13:39:16;;;;;;;3.13;1.02;;;;;;;;;;4981865;28;20855;-67
2023/12/21 13:41:44;;;;;;;2.35;0.82;;;;;;;;;;4979643;28;20025;-67
2023/12/21 13:44:09;;;;;;;4.03;0.93;;;;;;;;;;4977339;28;20022;-66
2023/12/21 13:46:34;;;;;;;4.37;0.63;;;;;;;;;;4977281;28;20769;-66
2023/12/21 13:48:59;;;;;;;3.25;0.93;;;;;;;;;;4972098;28;21021;-67
2023/12/21 13:51:25;;;;;;;3.20;0.73;;;;;;;;;;4983122;28;20042;-65
2023/12/21 13:53:50;;;;;;;2.33;0.80;;;;;;;;;;4981107;28;20018;-65
2023/12/21 13:56:15;;;;;;;2.47;1.23;;;;;;;;;;4992066;28;20032;-66
2023/12/21 13:58:40;;;;;;;4.20;0.60;;;;;;;;;;4985650;28;20022;-65
2023/12/21 14:01:06;;;;;;;2.23;0.80;;;;;;;;;;4975378;28;20895;-71
2023/12/21 14:03:31;;;;;;;4.43;1.20;;;;;;;;;;4976734;28;20556;-66
2023/12/21 14:05:56;;;;;;;2.35;0.85;;;;;;;;;;4978478;28;20946;-66
2023/12/21 14:08:22;;;;;;;7.60;0.80;;;;;;;;;;4980992;28;20061;-66
2023/12/21 14:10:47;;;;;;;2.85;0.80;;;;;;;;;;4998966;28;20021;-66
2023/12/21 14:13:13;;;;;;;3.28;1.00;;;;;;;;;;5014411;28;20079;-65
2023/12/21 14:15:39;;;;;;;4.22;1.15;;;;;;;;;;5001740;28;20383;-66
2023/12/21 14:18:04;;;;;;;3.05;1.20;;;;;;;;;;5017643;28;20080;-64
2023/12/21 14:20:29;;;;;;;3.75;0.90;;;;;;;;;;5020862;28;20021;-66
2023/12/21 14:22:55;;;;;;;3.33;1.23;;;;;;;;;;5018536;28;20026;-65
2023/12/21 14:25:20;;;;;;;2.10;0.80;;;;;;;;;;5020173;28;20495;-65
2023/12/21 14:27:47;;;;;;;2.08;0.90;;;;;;;;;;5014592;28;20775;-64